createdAt,value
2022-12-09T00:00:47.753Z,8.50
2022-12-09T00:06:29.070Z,7.80
2022-12-09T00:11:31.293Z,9.93
2022-12-09T00:16:33.749Z,9.20
2022-12-09T00:21:36.256Z,7.67
2022-12-09T00:26:38.930Z,8.37
2022-12-09T00:31:41.237Z,8.90
2022-12-09T00:36:43.573Z,8.10
2022-12-09T00:41:46.581Z,8.63
2022-12-09T00:46:48.977Z,7.77
2022-12-09T00:51:51.418Z,9.90
2022-12-09T00:56:53.655Z,8.50
2022-12-09T01:01:55.783Z,8.80
2022-12-09T01:06:58.124Z,8.13
2022-12-09T01:12:04.182Z,9.27
2022-12-09T01:17:06.361Z,8.80
2022-12-09T01:22:08.590Z,9.10
2022-12-09T01:27:11.058Z,8.83
2022-12-09T01:32:13.617Z,8.43
2022-12-09T01:37:16.225Z,8.80
2022-12-09T01:42:24.032Z,8.83
2022-12-09T01:47:26.452Z,8.60
2022-12-09T01:52:28.708Z,8.03
2022-12-09T01:57:31.773Z,8.63
2022-12-09T02:02:36.904Z,8.10
2022-12-09T02:07:39.653Z,8.17
2022-12-09T02:13:05.178Z,7.90
2022-12-09T02:18:51.859Z,8.50
2022-12-09T02:24:01.888Z,7.87
2022-12-09T02:29:40.777Z,7.07
2022-12-09T02:34:59.169Z,6.70
2022-12-09T02:40:14.275Z,7.80
2022-12-09T02:45:18.537Z,8.47
2022-12-09T02:50:29.097Z,7.93
2022-12-09T02:55:33.112Z,7.97
2022-12-09T03:00:35.835Z,8.63
2022-12-09T03:06:02.430Z,7.67
2022-12-09T03:11:09.896Z,7.57
2022-12-09T03:16:15.254Z,6.33
2022-12-09T03:21:20.547Z,6.73
2022-12-09T03:26:23.653Z,7.40
2022-12-09T03:31:29.577Z,6.57
2022-12-09T03:36:37.992Z,8.00
2022-12-09T03:41:45.857Z,6.93
2022-12-09T03:46:48.364Z,5.93
2022-12-09T03:51:57.985Z,5.70
2022-12-09T03:57:01.297Z,6.50
2022-12-09T04:02:07.581Z,5.30
2022-12-09T04:07:11.021Z,5.50
2022-12-09T04:12:16.910Z,6.00
2022-12-09T04:17:19.605Z,6.03
2022-12-09T04:22:21.955Z,7.27
2022-12-09T04:27:24.536Z,6.30
2022-12-09T04:32:26.869Z,6.70
2022-12-09T04:37:29.505Z,6.20
2022-12-09T04:42:32.004Z,7.50
2022-12-09T04:47:35.122Z,6.83
2022-12-09T04:52:37.493Z,6.37
2022-12-09T04:57:40.040Z,7.63
2022-12-09T05:02:42.374Z,8.00
2022-12-09T05:07:45.077Z,7.17
2022-12-09T05:12:47.506Z,7.57
2022-12-09T05:17:50.001Z,6.30
2022-12-09T05:22:52.576Z,7.90
2022-12-09T05:27:55.151Z,7.80
2022-12-09T05:32:57.608Z,7.97
2022-12-09T05:38:00.039Z,9.07
2022-12-09T05:43:04.577Z,8.20
2022-12-09T05:48:07.499Z,9.87
2022-12-09T05:53:10.051Z,10.03
2022-12-09T05:58:12.237Z,11.43
2022-12-09T06:03:15.485Z,10.27
2022-12-09T06:08:18.892Z,10.20
2022-12-09T06:13:21.166Z,10.60
2022-12-09T06:18:23.714Z,11.63
2022-12-09T06:23:26.984Z,12.73
2022-12-09T06:28:29.596Z,13.57
2022-12-09T06:38:54.764Z,11.17
2022-12-09T06:43:58.378Z,12.43
2022-12-09T06:49:00.985Z,12.40
2022-12-09T06:54:05.193Z,14.23
2022-12-09T06:59:09.352Z,10.43
2022-12-09T07:04:13.965Z,13.10
2022-12-09T07:09:19.947Z,15.30
2022-12-09T07:14:22.295Z,14.30
2022-12-09T07:19:24.794Z,14.53
2022-12-09T07:24:27.248Z,14.23
2022-12-09T07:29:33.636Z,15.60
2022-12-09T07:34:36.604Z,12.57
2022-12-09T07:39:38.860Z,15.20
2022-12-09T07:44:41.268Z,12.60
2022-12-09T07:49:43.826Z,13.53
2022-12-09T07:54:46.006Z,14.17
2022-12-09T07:59:48.746Z,13.83
2022-12-09T08:04:51.349Z,12.37
2022-12-09T08:09:57.247Z,13.87
2022-12-09T08:14:59.652Z,14.37
2022-12-09T08:20:02.412Z,14.70
2022-12-09T08:25:06.361Z,14.20
2022-12-09T08:30:10.013Z,15.30
2022-12-09T08:35:15.656Z,14.43
2022-12-09T08:40:19.174Z,15.13
2022-12-09T08:45:21.871Z,13.67
2022-12-09T08:50:24.416Z,15.47
2022-12-09T08:55:27.892Z,14.30
2022-12-09T09:00:30.594Z,14.10
2022-12-09T09:05:33.109Z,15.40
2022-12-09T09:10:37.426Z,14.77
2022-12-09T09:15:40.529Z,13.87
2022-12-09T09:20:52.546Z,14.63
2022-12-09T09:25:54.992Z,14.70
2022-12-09T09:31:06.309Z,15.07
2022-12-09T09:36:11.678Z,14.53
2022-12-09T09:41:26.307Z,14.30
2022-12-09T09:46:38.112Z,13.07
2022-12-09T09:51:40.773Z,13.57
2022-12-09T09:56:51.932Z,14.13
2022-12-09T10:02:19.951Z,12.47
2022-12-09T10:07:36.465Z,13.50
2022-12-09T10:13:05.057Z,12.13
2022-12-09T10:18:19.201Z,14.17
2022-12-09T10:23:22.492Z,12.67
2022-12-09T10:28:27.747Z,12.90
2022-12-09T10:33:34.355Z,12.40
2022-12-09T10:38:38.988Z,11.80
2022-12-09T10:43:43.202Z,12.70
2022-12-09T10:48:49.049Z,11.87
2022-12-09T10:53:53.256Z,12.47
2022-12-09T10:59:23.291Z,12.63
2022-12-09T11:04:28.295Z,13.55
2022-12-09T11:09:36.585Z,11.27
2022-12-09T11:14:51.104Z,10.87
2022-12-09T11:20:22.554Z,12.87
2022-12-09T11:25:31.950Z,10.87
2022-12-09T11:30:57.482Z,11.90
2022-12-09T11:41:16.386Z,13.63
2022-12-09T11:46:28.607Z,12.67
2022-12-09T11:51:33.367Z,11.83
2022-12-09T11:56:48.336Z,12.87
2022-12-09T12:02:05.267Z,13.77
2022-12-09T12:07:18.452Z,13.53
2022-12-09T12:12:29.451Z,13.27
2022-12-09T12:17:38.485Z,13.40
2022-12-09T12:23:06.444Z,14.02
2022-12-09T12:28:26.893Z,13.23
2022-12-09T12:34:07.723Z,13.00
2022-12-09T12:39:22.869Z,12.57
2022-12-09T12:44:58.270Z,11.97
2022-12-09T12:50:03.386Z,12.47
2022-12-09T12:55:23.769Z,11.90
2022-12-09T13:00:32.020Z,12.73
2022-12-09T13:05:43.958Z,11.00
2022-12-09T13:10:50.827Z,11.60
2022-12-09T13:15:55.543Z,12.13
2022-12-09T13:20:59.837Z,11.30
2022-12-09T13:26:17.172Z,11.17
2022-12-09T13:31:22.631Z,10.30
2022-12-09T13:36:37.947Z,9.77
2022-12-09T13:42:08.668Z,11.47
2022-12-09T13:47:35.241Z,10.40
2022-12-09T13:52:43.828Z,10.00
2022-12-09T13:58:18.222Z,9.67
2022-12-09T14:03:35.219Z,10.23
2022-12-09T14:08:41.884Z,10.97
2022-12-09T14:13:44.242Z,11.03
2022-12-09T14:18:46.421Z,12.57
2022-12-09T14:24:16.538Z,12.27
2022-12-09T14:29:55.920Z,11.02
2022-12-09T14:35:11.978Z,10.23
2022-12-09T14:40:14.150Z,11.93
2022-12-09T14:45:33.559Z,10.87
2022-12-09T14:50:38.818Z,11.48
2022-12-09T14:55:44.698Z,10.57
2022-12-09T15:01:03.685Z,10.20
2022-12-09T15:06:17.571Z,9.65
2022-12-09T15:11:23.770Z,10.57
2022-12-09T15:16:26.622Z,9.83
2022-12-09T15:21:31.866Z,9.33
2022-12-09T15:26:34.476Z,11.67
2022-12-09T15:31:47.636Z,9.70
2022-12-09T15:36:59.567Z,12.20
2022-12-09T15:42:13.651Z,9.90
2022-12-09T15:47:39.729Z,8.70
2022-12-09T15:53:00.564Z,10.27
2022-12-09T15:58:05.975Z,9.93
2022-12-09T16:03:08.922Z,8.97
2022-12-09T16:08:11.588Z,9.83
2022-12-09T16:13:18.394Z,9.93
2022-12-09T16:18:43.787Z,9.47
2022-12-09T16:23:48.700Z,12.87
2022-12-09T16:28:59.014Z,12.13
2022-12-09T16:34:01.192Z,12.23
2022-12-09T16:39:09.366Z,9.77
2022-12-09T16:44:22.150Z,9.33
2022-12-09T16:49:24.326Z,10.43
2022-12-09T16:54:37.643Z,11.00
2022-12-09T16:59:40.294Z,11.33
2022-12-09T17:04:42.604Z,10.43
2022-12-09T17:09:44.866Z,9.23
2022-12-09T17:14:47.113Z,10.27
2022-12-09T17:19:49.649Z,9.60
2022-12-09T17:24:51.867Z,9.33
2022-12-09T17:29:54.280Z,9.90
2022-12-09T17:34:56.473Z,9.13
2022-12-09T17:40:03.432Z,10.07
2022-12-09T17:45:07.467Z,10.00
2022-12-09T17:50:13.354Z,7.93
2022-12-09T17:55:18.919Z,10.85
2022-12-09T18:00:21.157Z,10.67
2022-12-09T18:05:23.328Z,9.73
2022-12-09T18:10:25.609Z,8.97
2022-12-09T18:15:27.808Z,9.93
2022-12-09T18:20:30.005Z,10.90
2022-12-09T18:25:32.133Z,10.00
2022-12-09T18:30:40.376Z,8.93
2022-12-09T18:35:42.927Z,10.70
2022-12-09T18:41:04.239Z,9.00
2022-12-09T18:46:09.298Z,9.53
2022-12-09T18:51:19.603Z,8.00
2022-12-09T18:56:21.835Z,8.57
2022-12-09T19:01:26.791Z,8.03
2022-12-09T19:06:35.672Z,8.63
2022-12-09T19:11:39.750Z,9.50
2022-12-09T19:16:44.936Z,10.23
2022-12-09T19:21:47.733Z,9.03
2022-12-09T19:26:53.314Z,8.63
2022-12-09T19:31:58.299Z,9.77
2022-12-09T19:37:01.570Z,7.87
2022-12-09T19:42:05.432Z,10.30
2022-12-09T19:47:08.867Z,9.20
2022-12-09T19:52:12.282Z,9.73
2022-12-09T19:57:14.648Z,9.00
2022-12-09T20:02:17.918Z,8.77
2022-12-09T20:07:23.552Z,7.83
2022-12-09T20:12:26.204Z,8.53
2022-12-09T20:17:28.478Z,8.77
2022-12-09T20:22:31.092Z,7.63
2022-12-09T20:27:37.267Z,7.97
2022-12-09T20:32:39.505Z,8.10
2022-12-09T20:37:44.149Z,7.63
2022-12-09T20:42:46.410Z,9.00
2022-12-09T20:47:48.702Z,9.37
2022-12-09T20:52:51.402Z,8.07
2022-12-09T20:57:56.056Z,8.37
2022-12-09T21:02:58.575Z,8.33
2022-12-09T21:08:00.755Z,7.70
2022-12-09T21:13:03.311Z,7.57
2022-12-09T21:18:05.615Z,8.23
2022-12-09T21:23:32.670Z,8.97
2022-12-09T21:28:30.328Z,8.83
2022-12-09T21:33:32.609Z,10.70
2022-12-09T21:38:36.477Z,10.43
2022-12-09T21:43:39.076Z,10.00
2022-12-09T21:48:41.471Z,12.23
2022-12-09T21:53:44.379Z,10.57
2022-12-09T21:58:48.108Z,12.37
2022-12-09T22:03:50.444Z,10.40
2022-12-09T22:08:52.863Z,10.43
2022-12-09T22:13:58.208Z,10.63
2022-12-09T22:19:01.787Z,11.17
2022-12-09T22:24:05.891Z,10.30
2022-12-09T22:29:08.246Z,11.27
2022-12-09T22:34:16.534Z,11.10
2022-12-09T22:39:21.985Z,10.80
2022-12-09T22:44:24.328Z,12.00
2022-12-09T22:49:26.594Z,12.10
2022-12-09T22:54:29.025Z,11.40
2022-12-09T22:59:31.418Z,11.20
2022-12-09T23:04:36.564Z,10.63
2022-12-09T23:09:38.848Z,11.27
2022-12-09T23:14:41.062Z,11.03
2022-12-09T23:19:43.343Z,11.40
2022-12-09T23:24:45.682Z,10.43
2022-12-09T23:29:48.000Z,10.17
2022-12-09T23:34:50.228Z,10.20
2022-12-09T23:39:52.477Z,10.33
2022-12-09T23:44:55.041Z,10.37
2022-12-09T23:49:57.809Z,9.53
2022-12-09T23:55:04.319Z,10.80
